createdAt,value
2018-04-16T00:01:51.291Z,115.90
2018-04-16T00:04:18.908Z,114.23
2018-04-16T00:06:46.576Z,108.73
2018-04-16T00:09:14.212Z,94.37
2018-04-16T00:11:41.864Z,121.67
2018-04-16T00:14:09.487Z,125.40
2018-04-16T00:16:37.139Z,263.63
2018-04-16T00:19:04.753Z,275.47
2018-04-16T00:21:33.171Z,198.00
2018-04-16T00:24:00.876Z,412.10
2018-04-16T00:26:29.320Z,293.43
2018-04-16T00:28:56.939Z,261.33
2018-04-16T00:34:26.912Z,513.97
2018-04-16T00:37:00.300Z,686.97
2018-04-16T00:39:33.447Z,587.50
2018-04-16T00:42:07.527Z,896.70
2018-04-16T00:44:40.676Z,686.23
2018-04-16T00:47:13.995Z,498.67
2018-04-16T01:03:16.845Z,218.25
2018-04-16T01:05:50.054Z,75.30
2018-04-16T01:08:23.360Z,58.08
2018-04-16T01:10:56.680Z,108.35
2018-04-16T01:13:30.772Z,169.10
2018-04-16T01:16:04.133Z,482.23
2018-04-16T01:18:37.446Z,416.95
2018-04-16T01:21:10.644Z,491.87
2018-04-16T01:23:43.867Z,511.70
2018-04-16T01:26:17.311Z,465.33
2018-04-16T01:28:50.607Z,538.95
2018-04-16T01:31:23.916Z,292.07
2018-04-16T01:33:57.160Z,653.63
2018-04-16T01:36:31.120Z,467.15
2018-04-16T01:39:05.175Z,182.07
2018-04-16T01:41:38.596Z,121.70
2018-04-16T01:44:11.863Z,117.20
2018-04-16T01:46:45.056Z,135.27
2018-04-16T01:49:18.360Z,124.00
2018-04-16T01:51:52.608Z,110.97
2018-04-16T01:54:25.812Z,122.75
2018-04-16T01:56:59.140Z,94.72
2018-04-16T01:59:32.195Z,104.00
2018-04-16T02:02:05.519Z,107.87
2018-04-16T02:04:38.706Z,90.50
2018-04-16T02:07:12.781Z,104.73
2018-04-16T02:09:46.066Z,99.00
2018-04-16T02:12:19.320Z,122.63
2018-04-16T02:14:52.515Z,190.65
2018-04-16T02:17:25.788Z,188.52
2018-04-16T02:19:58.956Z,141.67
2018-04-16T02:22:32.919Z,112.72
2018-04-16T02:25:06.267Z,121.95
2018-04-16T02:27:40.143Z,147.40
2018-04-16T02:30:13.396Z,132.93
2018-04-16T02:32:46.929Z,160.17
2018-04-16T02:35:20.966Z,118.17
2018-04-16T02:37:54.287Z,100.90
2018-04-16T02:40:27.540Z,145.50
2018-04-16T02:43:00.799Z,152.77
2018-04-16T02:45:34.152Z,120.27
2018-04-16T02:48:07.300Z,212.12
2018-04-16T02:50:40.642Z,309.67
2018-04-16T02:53:14.076Z,236.20
2018-04-16T02:55:47.280Z,386.97
2018-04-16T02:58:21.383Z,160.32
2018-04-16T03:00:54.746Z,150.40
2018-04-16T03:03:27.892Z,168.87
2018-04-16T03:06:01.325Z,141.20
2018-04-16T03:08:34.579Z,176.15
2018-04-16T03:11:08.552Z,362.38
2018-04-16T03:13:41.848Z,334.47
2018-04-16T03:16:15.004Z,203.12
2018-04-16T03:18:48.192Z,93.83
2018-04-16T03:24:19.369Z,83.22
2018-04-16T03:26:52.729Z,91.22
2018-04-16T03:29:26.043Z,102.00
2018-04-16T03:31:59.386Z,135.23
2018-04-16T03:34:33.551Z,110.27
2018-04-16T03:37:06.943Z,99.93
2018-04-16T03:39:40.259Z,89.93
2018-04-16T03:42:13.755Z,96.47
2018-04-16T03:44:47.017Z,91.43
2018-04-16T03:47:20.348Z,94.83
2018-04-16T03:49:53.788Z,101.63
2018-04-16T03:52:27.031Z,96.10
2018-04-16T03:54:54.691Z,87.50
2018-04-16T03:57:22.541Z,148.87
2018-04-16T03:59:50.192Z,98.13
2018-04-16T04:02:17.850Z,110.00
2018-04-16T04:04:45.468Z,102.57
2018-04-16T04:07:14.815Z,109.97
2018-04-16T04:09:42.811Z,108.17
2018-04-16T04:12:10.434Z,128.57
2018-04-16T04:14:38.111Z,89.18
2018-04-16T04:17:05.806Z,88.15
2018-04-16T04:19:33.459Z,110.15
2018-04-16T04:22:01.113Z,94.10
2018-04-16T04:24:40.730Z,109.70
2018-04-16T04:27:20.290Z,112.30
2018-04-16T04:29:59.775Z,118.70
2018-04-16T04:32:27.781Z,137.13
2018-04-16T04:34:55.855Z,116.47
2018-04-16T04:37:25.406Z,107.10
2018-04-16T04:39:56.309Z,96.87
2018-04-16T04:42:24.088Z,98.37
2018-04-16T04:44:51.819Z,102.03
2018-04-16T04:47:19.501Z,112.18
2018-04-16T04:49:47.264Z,109.50
2018-04-16T04:52:14.907Z,124.43
2018-04-16T04:54:42.559Z,103.77
2018-04-16T04:57:10.242Z,133.53
2018-04-16T04:59:37.894Z,138.97
2018-04-16T05:02:05.843Z,131.33
2018-04-16T05:04:36.651Z,140.07
2018-04-16T05:07:04.682Z,124.20
2018-04-16T05:09:32.356Z,124.23
2018-04-16T05:12:01.519Z,117.43
2018-04-16T05:14:29.281Z,97.03
2018-04-16T05:16:56.946Z,107.37
2018-04-16T05:19:24.563Z,103.40
2018-04-16T05:21:52.241Z,119.30
2018-04-16T05:24:20.101Z,98.35
2018-04-16T05:26:47.740Z,119.13
2018-04-16T05:29:16.202Z,106.95
2018-04-16T05:31:43.820Z,95.73
2018-04-16T05:34:11.477Z,94.35
2018-04-16T05:36:39.514Z,102.50
2018-04-16T05:39:07.446Z,102.07
2018-04-16T05:41:36.513Z,95.15
2018-04-16T05:44:06.729Z,86.20
2018-04-16T05:46:34.420Z,88.37
2018-04-16T05:49:02.271Z,89.40
2018-04-16T05:51:30.018Z,81.37
2018-04-16T05:53:59.593Z,87.43
2018-04-16T05:56:28.608Z,82.55
2018-04-16T05:58:56.499Z,79.37
2018-04-16T06:01:24.166Z,76.63
2018-04-16T06:03:52.575Z,69.37
2018-04-16T06:06:21.551Z,77.80
2018-04-16T06:08:49.447Z,72.70
2018-04-16T06:11:17.119Z,72.47
2018-04-16T06:13:44.731Z,83.85
2018-04-16T06:16:12.436Z,64.53
2018-04-16T06:18:40.293Z,70.93
2018-04-16T06:21:07.944Z,68.12
2018-04-16T06:23:35.596Z,77.60
2018-04-16T06:26:03.619Z,70.55
2018-04-16T06:28:31.287Z,61.70
2018-04-16T06:30:58.911Z,75.27
2018-04-16T06:33:27.981Z,65.93
2018-04-16T06:35:55.604Z,63.03
2018-04-16T06:38:24.053Z,72.53
2018-04-16T06:40:52.064Z,66.40
2018-04-16T06:43:21.777Z,67.23
2018-04-16T06:45:50.235Z,73.15
2018-04-16T06:48:18.173Z,61.87
2018-04-16T06:50:46.156Z,62.10
2018-04-16T06:53:13.845Z,64.55
2018-04-16T06:55:42.314Z,63.47
2018-04-16T06:58:09.938Z,66.97
2018-04-16T07:00:37.735Z,59.50
2018-04-16T07:03:07.062Z,61.90
2018-04-16T07:05:35.808Z,62.08
2018-04-16T07:08:03.433Z,57.23
2018-04-16T07:10:31.096Z,58.03
2018-04-16T07:12:58.784Z,58.90
2018-04-16T07:15:26.546Z,57.60
2018-04-16T07:17:54.225Z,58.60
2018-04-16T07:20:21.887Z,64.53
2018-04-16T07:22:49.546Z,56.77
2018-04-16T07:25:17.208Z,56.17
2018-04-16T07:27:44.871Z,53.72
2018-04-16T07:30:12.733Z,52.33
2018-04-16T07:32:40.396Z,53.03
2018-04-16T07:35:08.217Z,52.77
2018-04-16T07:37:35.872Z,52.67
2018-04-16T07:40:03.565Z,54.07
2018-04-16T07:42:31.241Z,50.53
2018-04-16T07:44:58.911Z,48.70
2018-04-16T07:47:26.532Z,50.55
2018-04-16T07:49:54.187Z,50.33
2018-04-16T07:52:22.076Z,53.63
2018-04-16T07:54:49.750Z,55.85
2018-04-16T07:57:17.420Z,52.03
2018-04-16T07:59:45.036Z,56.80
2018-04-16T08:02:12.695Z,52.80
2018-04-16T08:04:40.319Z,50.53
2018-04-16T08:07:08.695Z,54.23
2018-04-16T08:09:36.354Z,52.15
2018-04-16T08:12:04.813Z,52.47
2018-04-16T08:14:32.428Z,46.15
2018-04-16T08:17:00.872Z,46.90
2018-04-16T08:19:29.311Z,45.43
2018-04-16T08:21:57.066Z,45.10
2018-04-16T08:24:24.730Z,47.30
2018-04-16T08:26:52.391Z,42.78
2018-04-16T08:29:20.024Z,47.47
2018-04-16T08:31:47.687Z,46.33
2018-04-16T08:34:15.336Z,38.03
2018-04-16T08:36:42.995Z,48.47
2018-04-16T08:39:10.793Z,42.70
2018-04-16T08:41:38.453Z,40.60
2018-04-16T08:44:06.231Z,43.97
2018-04-16T08:46:34.461Z,44.87
2018-04-16T08:49:02.088Z,45.33
2018-04-16T08:51:30.318Z,44.78
2018-04-16T08:53:57.970Z,42.60
2018-04-16T08:56:25.639Z,42.00
2018-04-16T08:58:53.267Z,38.38
2018-04-16T09:01:20.919Z,35.10
2018-04-16T09:06:40.454Z,41.50
2018-04-16T09:09:08.133Z,38.60
2018-04-16T09:11:35.800Z,35.60
2018-04-16T09:14:04.968Z,37.47
2018-04-16T09:16:32.619Z,37.80
2018-04-16T09:19:00.415Z,39.07
2018-04-16T09:21:28.082Z,36.50
2018-04-16T09:23:55.775Z,39.50
2018-04-16T09:26:23.393Z,41.63
2018-04-16T09:28:51.017Z,36.17
2018-04-16T09:31:18.693Z,33.70
2018-04-16T09:33:47.924Z,35.42
2018-04-16T09:36:15.582Z,39.10
2018-04-16T09:38:43.199Z,34.65
2018-04-16T09:41:10.859Z,38.67
2018-04-16T09:43:38.519Z,38.80
2018-04-16T09:46:06.199Z,35.30
2018-04-16T09:48:33.832Z,39.20
2018-04-16T09:51:01.495Z,31.95
2018-04-16T09:53:29.177Z,33.78
2018-04-16T09:55:56.835Z,33.23
2018-04-16T09:58:24.467Z,34.88
2018-04-16T10:00:52.174Z,31.67
2018-04-16T10:03:19.843Z,36.10
2018-04-16T10:05:47.507Z,36.60
2018-04-16T10:08:15.147Z,39.78
2018-04-16T10:10:43.124Z,33.93
2018-04-16T10:13:10.791Z,33.57
2018-04-16T10:15:38.427Z,38.73
2018-04-16T10:18:06.956Z,31.12
2018-04-16T10:20:34.575Z,35.15
2018-04-16T10:23:02.194Z,36.17
2018-04-16T10:25:29.851Z,35.08
2018-04-16T10:27:57.515Z,33.50
2018-04-16T10:30:25.176Z,36.20
2018-04-16T10:32:52.799Z,38.20
2018-04-16T10:35:20.454Z,35.70
2018-04-16T10:37:48.074Z,31.57
2018-04-16T10:40:15.731Z,31.33
2018-04-16T10:42:43.523Z,31.17
2018-04-16T10:45:11.226Z,33.80
2018-04-16T10:47:39.607Z,33.97
2018-04-16T10:50:08.054Z,34.38
2018-04-16T10:52:36.480Z,29.80
2018-04-16T10:55:04.132Z,29.73
2018-04-16T10:57:31.791Z,30.83
2018-04-16T10:59:59.407Z,32.33
2018-04-16T11:02:27.060Z,33.20
2018-04-16T11:04:54.915Z,32.30
2018-04-16T11:07:22.577Z,30.13
2018-04-16T11:09:50.194Z,31.00
2018-04-16T11:12:18.074Z,30.13
2018-04-16T11:14:45.703Z,31.93
2018-04-16T11:17:13.318Z,30.37
2018-04-16T11:19:41.171Z,27.70
2018-04-16T11:22:09.313Z,26.33
2018-04-16T11:24:36.932Z,27.33
2018-04-16T11:27:04.798Z,25.53
2018-04-16T11:29:32.474Z,28.17
2018-04-16T11:32:00.100Z,30.00
2018-04-16T11:34:28.022Z,29.27
2018-04-16T11:36:57.059Z,31.70
2018-04-16T11:39:24.719Z,30.93
2018-04-16T11:41:52.370Z,27.13
2018-04-16T11:44:20.029Z,28.15
2018-04-16T11:46:47.680Z,28.90
2018-04-16T11:49:15.343Z,28.77
2018-04-16T11:51:43.000Z,28.55
2018-04-16T11:54:10.658Z,25.85
2018-04-16T11:56:38.267Z,27.58
2018-04-16T11:59:05.936Z,30.40
2018-04-16T12:01:33.560Z,26.77
2018-04-16T12:04:01.192Z,25.83
2018-04-16T12:06:28.857Z,28.87
2018-04-16T12:08:56.527Z,26.83
2018-04-16T12:11:24.152Z,25.97
2018-04-16T12:13:52.546Z,25.08
2018-04-16T12:16:20.220Z,26.03
2018-04-16T12:18:47.908Z,24.27
2018-04-16T12:21:15.557Z,22.00
2018-04-16T12:23:43.221Z,22.47
2018-04-16T12:26:11.190Z,22.57
2018-04-16T12:28:38.853Z,24.15
2018-04-16T12:31:06.467Z,22.87
2018-04-16T12:33:34.127Z,25.13
2018-04-16T12:36:01.749Z,23.03
2018-04-16T12:38:29.432Z,21.67
2018-04-16T12:40:57.051Z,22.17
2018-04-16T12:43:24.710Z,20.47
2018-04-16T12:45:52.327Z,19.13
2018-04-16T12:48:20.753Z,20.87
2018-04-16T12:50:48.385Z,19.70
2018-04-16T12:53:16.056Z,17.83
2018-04-16T12:55:43.677Z,19.30
2018-04-16T12:58:11.303Z,20.27
2018-04-16T13:00:38.955Z,20.47
2018-04-16T13:03:07.327Z,23.70
2018-04-16T13:05:35.004Z,21.83
2018-04-16T13:08:02.632Z,22.80
2018-04-16T13:10:30.287Z,24.10
2018-04-16T13:12:57.908Z,22.35
2018-04-16T13:15:26.332Z,20.63
2018-04-16T13:17:53.993Z,20.43
2018-04-16T13:20:21.788Z,21.03
2018-04-16T13:22:49.406Z,20.60
2018-04-16T13:25:17.397Z,20.07
2018-04-16T13:27:45.387Z,20.00
2018-04-16T13:30:13.015Z,21.57
2018-04-16T13:32:40.636Z,18.20
2018-04-16T13:35:09.063Z,19.47
2018-04-16T13:37:36.752Z,21.00
2018-04-16T13:40:04.590Z,19.43
2018-04-16T13:42:32.245Z,19.20
2018-04-16T13:44:59.859Z,18.07
2018-04-16T13:47:27.519Z,20.13
2018-04-16T13:49:55.900Z,19.13
2018-04-16T13:52:24.343Z,19.13
2018-04-16T13:54:51.970Z,20.47
2018-04-16T13:57:19.764Z,22.50
2018-04-16T13:59:50.266Z,21.43
2018-04-16T14:02:17.923Z,21.17
2018-04-16T14:04:45.544Z,21.77
2018-04-16T14:07:13.980Z,21.33
2018-04-16T14:09:41.606Z,20.83
2018-04-16T14:12:09.262Z,21.08
2018-04-16T14:14:36.880Z,13.48
2018-04-16T14:17:04.541Z,7.15
2018-04-16T14:19:32.158Z,7.57
2018-04-16T14:21:59.807Z,9.07
2018-04-16T14:24:27.423Z,9.77
2018-04-16T14:26:55.086Z,10.00
2018-04-16T14:29:22.704Z,10.77
2018-04-16T14:31:50.324Z,11.27
2018-04-16T14:34:18.739Z,10.60
2018-04-16T14:36:46.964Z,12.73
2018-04-16T14:39:14.644Z,11.23
2018-04-16T14:41:42.569Z,14.20
2018-04-16T14:44:10.231Z,14.70
2018-04-16T14:46:37.888Z,14.63
2018-04-16T14:49:05.552Z,12.90
2018-04-16T14:51:33.173Z,13.10
2018-04-16T14:54:01.205Z,15.33
2018-04-16T14:56:28.859Z,15.53
2018-04-16T14:58:56.515Z,15.60
2018-04-16T15:01:24.144Z,15.45
2018-04-16T15:03:51.809Z,16.40
2018-04-16T15:06:19.481Z,16.70
2018-04-16T15:08:47.143Z,17.17
2018-04-16T15:11:14.763Z,18.10
2018-04-16T15:13:42.419Z,16.27
2018-04-16T15:16:10.328Z,17.23
2018-04-16T15:18:38.120Z,15.70
2018-04-16T15:21:06.522Z,15.63
2018-04-16T15:23:34.139Z,16.58
2018-04-16T15:26:01.787Z,13.50
2018-04-16T15:28:29.406Z,14.57
2018-04-16T15:30:57.064Z,14.60
2018-04-16T15:33:24.683Z,15.88
2018-04-16T15:35:53.109Z,15.30
2018-04-16T15:38:20.729Z,16.23
2018-04-16T15:40:49.155Z,17.37
2018-04-16T15:43:16.816Z,17.27
2018-04-16T15:45:44.526Z,18.27
2018-04-16T15:48:14.019Z,19.37
2018-04-16T15:50:41.636Z,18.05
2018-04-16T15:53:09.291Z,20.03
2018-04-16T15:55:36.928Z,19.40
2018-04-16T15:58:05.360Z,18.80
2018-04-16T16:00:32.983Z,20.20
2018-04-16T16:03:00.642Z,19.00
2018-04-16T16:05:29.631Z,19.20
2018-04-16T16:07:57.439Z,19.73
2018-04-16T16:10:25.086Z,21.37
2018-04-16T16:12:53.997Z,20.63
2018-04-16T16:15:22.705Z,19.95
2018-04-16T16:17:50.444Z,21.90
2018-04-16T16:20:18.075Z,23.12
2018-04-16T16:22:45.756Z,21.85
2018-04-16T16:25:14.272Z,21.48
2018-04-16T16:27:44.032Z,20.42
2018-04-16T16:30:11.707Z,21.83
2018-04-16T16:32:41.708Z,25.23
2018-04-16T16:35:09.407Z,21.12
2018-04-16T16:37:37.807Z,22.60
2018-04-16T16:40:07.588Z,25.10
2018-04-16T16:42:37.038Z,22.57
2018-04-16T16:45:05.764Z,24.13
2018-04-16T16:47:33.876Z,23.00
2018-04-16T16:50:03.341Z,23.90
2018-04-16T16:52:30.978Z,23.93
2018-04-16T16:54:58.599Z,23.03
2018-04-16T16:57:27.024Z,24.57
2018-04-16T16:59:56.564Z,27.33
2018-04-16T17:02:24.424Z,26.77
2018-04-16T17:04:52.154Z,26.75
2018-04-16T17:07:19.808Z,30.50
2018-04-16T17:09:47.688Z,30.87
2018-04-16T17:12:16.008Z,30.17
2018-04-16T17:14:44.431Z,34.60
2018-04-16T17:17:12.099Z,35.27
2018-04-16T17:19:42.024Z,38.70
2018-04-16T17:22:10.023Z,40.37
2018-04-16T17:24:38.700Z,39.73
2018-04-16T17:27:06.373Z,40.35
2018-04-16T17:29:33.991Z,42.07
2018-04-16T17:32:01.608Z,41.47
2018-04-16T17:34:29.260Z,44.97
2018-04-16T17:36:56.940Z,44.03
2018-04-16T17:39:26.013Z,42.53
2018-04-16T17:41:53.667Z,42.73
2018-04-16T17:44:21.537Z,42.78
2018-04-16T17:46:51.884Z,39.67
2018-04-16T17:49:19.516Z,41.88
2018-04-16T17:51:47.323Z,40.67
2018-04-16T17:54:14.988Z,44.72
2018-04-16T17:56:44.830Z,33.77
2018-04-16T17:59:12.452Z,38.70
2018-04-16T18:01:40.072Z,34.50
2018-04-16T18:04:07.770Z,38.43
2018-04-16T18:06:35.749Z,33.47
2018-04-16T18:09:03.431Z,31.08
2018-04-16T18:11:31.064Z,34.47
2018-04-16T18:13:58.749Z,32.70
2018-04-16T18:16:26.437Z,37.97
2018-04-16T18:18:54.048Z,34.53
2018-04-16T18:21:21.712Z,31.62
2018-04-16T18:23:49.339Z,34.33
2018-04-16T18:26:17.232Z,34.20
2018-04-16T18:28:44.851Z,34.30
2018-04-16T18:31:12.516Z,35.50
2018-04-16T18:33:40.152Z,33.42
2018-04-16T18:36:07.803Z,29.13
2018-04-16T18:38:35.535Z,30.20
2018-04-16T18:41:03.280Z,37.23
2018-04-16T18:43:30.900Z,31.33
2018-04-16T18:45:58.563Z,31.77
2018-04-16T18:48:26.184Z,27.77
2018-04-16T18:50:53.839Z,26.20
2018-04-16T18:53:21.452Z,24.60
2018-04-16T18:55:49.884Z,28.83
2018-04-16T18:58:17.519Z,35.22
2018-04-16T19:00:45.198Z,26.53
2018-04-16T19:03:12.807Z,25.93
2018-04-16T19:05:40.479Z,27.67
2018-04-16T19:08:08.144Z,28.90
2018-04-16T19:10:35.834Z,25.87
2018-04-16T19:13:03.470Z,26.07
2018-04-16T19:15:31.161Z,28.80
2018-04-16T19:17:58.850Z,27.13
2018-04-16T19:20:32.219Z,23.25
2018-04-16T19:22:59.880Z,25.80
2018-04-16T19:25:27.548Z,25.00
2018-04-16T19:28:00.811Z,25.40
2018-04-16T19:30:28.467Z,25.30
2018-04-16T19:33:01.668Z,22.40
2018-04-16T19:35:29.354Z,23.38
2018-04-16T19:37:57.848Z,26.73
2018-04-16T19:40:25.510Z,24.67
2018-04-16T19:42:53.510Z,24.37
2018-04-16T19:45:24.941Z,20.27
2018-04-16T19:47:53.405Z,18.20
2018-04-16T19:50:21.035Z,23.42
2018-04-16T19:52:48.818Z,19.40
2018-04-16T19:55:17.737Z,17.00
2018-04-16T19:57:52.004Z,20.87
2018-04-16T20:00:20.745Z,18.70
2018-04-16T20:02:55.823Z,26.23
2018-04-16T20:05:23.986Z,19.42
2018-04-16T20:07:52.265Z,18.33
2018-04-16T20:10:20.037Z,25.00
2018-04-16T20:12:47.707Z,16.13
2018-04-16T20:15:15.324Z,21.93
2018-04-16T20:17:43.104Z,18.07
2018-04-16T20:20:12.164Z,19.20
2018-04-16T20:22:40.328Z,15.40
2018-04-16T20:25:09.583Z,16.80
2018-04-16T20:27:37.259Z,20.73
2018-04-16T20:30:05.480Z,13.37
2018-04-16T20:32:33.139Z,13.75
2018-04-16T20:35:01.836Z,14.60
2018-04-16T20:37:30.410Z,13.93
2018-04-16T20:39:58.324Z,9.87
2018-04-16T20:42:25.979Z,10.87
2018-04-16T20:44:53.659Z,14.80
2018-04-16T20:47:21.552Z,10.23
2018-04-16T20:49:49.174Z,11.63
2018-04-16T20:52:16.828Z,12.13
2018-04-16T20:54:44.443Z,12.37
2018-04-16T20:57:12.562Z,13.57
2018-04-16T20:59:40.186Z,13.10
2018-04-16T21:02:08.586Z,10.07
2018-04-16T21:04:36.272Z,11.80
2018-04-16T21:07:03.933Z,10.30
2018-04-16T21:09:31.549Z,11.70
2018-04-16T21:11:59.212Z,10.40
2018-04-16T21:14:26.835Z,10.50
2018-04-16T21:16:55.458Z,13.90
2018-04-16T21:19:23.076Z,16.30
2018-04-16T21:21:50.923Z,9.13
2018-04-16T21:24:19.492Z,11.37
2018-04-16T21:26:47.116Z,7.73
2018-04-16T21:29:14.795Z,10.93
2018-04-16T21:31:42.418Z,13.33
2018-04-16T21:34:11.432Z,15.70
2018-04-16T21:36:39.703Z,11.97
2018-04-16T21:39:10.133Z,7.37
2018-04-16T21:41:37.807Z,12.45
2018-04-16T21:44:07.143Z,8.70
2018-04-16T21:46:34.916Z,10.07
2018-04-16T21:49:03.348Z,15.33
2018-04-16T21:51:32.459Z,11.87
2018-04-16T21:54:00.084Z,8.85
2018-04-16T21:56:27.744Z,12.00
2018-04-16T21:58:55.420Z,12.23
2018-04-16T22:01:23.089Z,6.62
2018-04-16T22:03:52.123Z,9.02
2018-04-16T22:06:22.439Z,14.65
2018-04-16T22:08:50.111Z,8.10
2018-04-16T22:11:18.879Z,6.67
2018-04-16T22:13:46.732Z,8.00
2018-04-16T22:16:14.563Z,12.60
2018-04-16T22:18:42.171Z,7.78
2018-04-16T22:21:09.906Z,13.52
2018-04-16T22:23:37.776Z,12.73
2018-04-16T22:26:05.440Z,7.43
2018-04-16T22:28:33.059Z,10.07
2018-04-16T22:31:00.856Z,10.30
2018-04-16T22:33:28.832Z,9.33
2018-04-16T22:35:56.490Z,6.23
2018-04-16T22:38:24.359Z,10.88
2018-04-16T22:40:52.121Z,14.98
2018-04-16T22:43:20.571Z,9.33
2018-04-16T22:45:48.875Z,7.20
2018-04-16T22:48:16.535Z,11.00
2018-04-16T22:50:45.096Z,9.27
2018-04-16T22:53:12.739Z,11.60
2018-04-16T22:55:40.391Z,8.87
2018-04-16T22:58:08.042Z,7.60
2018-04-16T23:00:36.305Z,12.20
2018-04-16T23:03:03.920Z,11.10
2018-04-16T23:05:31.590Z,9.70
2018-04-16T23:07:59.206Z,10.23
2018-04-16T23:10:26.842Z,11.90
2018-04-16T23:12:55.268Z,8.20
2018-04-16T23:15:22.914Z,9.77
2018-04-16T23:17:50.811Z,14.80
2018-04-16T23:20:18.562Z,15.17
2018-04-16T23:22:46.250Z,13.70
2018-04-16T23:25:13.896Z,17.57
2018-04-16T23:27:41.513Z,10.98
2018-04-16T23:30:09.159Z,14.73
2018-04-16T23:32:36.810Z,20.77
2018-04-16T23:35:04.522Z,9.40
2018-04-16T23:37:32.168Z,17.27
2018-04-16T23:39:59.784Z,20.30
2018-04-16T23:42:27.444Z,18.08
2018-04-16T23:44:56.099Z,12.27
2018-04-16T23:47:23.953Z,14.20
2018-04-16T23:49:51.595Z,18.73
2018-04-16T23:52:19.199Z,16.97
2018-04-16T23:54:46.843Z,13.75
2018-04-16T23:57:14.507Z,18.30
2018-04-16T23:59:42.736Z,13.80
